createdAt,value
2019-03-12T00:00:34.562Z,312.69
2019-03-12T00:01:34.542Z,312.85
2019-03-12T00:02:34.536Z,312.82
2019-03-12T00:03:34.567Z,312.71
2019-03-12T00:04:34.526Z,312.47
2019-03-12T00:05:34.512Z,313.21
2019-03-12T00:06:34.519Z,312.84
2019-03-12T00:07:34.473Z,312.66
2019-03-12T00:08:34.477Z,312.66
2019-03-12T00:09:34.455Z,312.70
2019-03-12T00:10:34.465Z,312.81
2019-03-12T00:11:34.444Z,312.43
2019-03-12T00:12:34.438Z,312.47
2019-03-12T00:13:34.449Z,312.55
2019-03-12T00:14:34.419Z,312.85
2019-03-12T00:15:34.395Z,312.22
2019-03-12T00:16:34.374Z,313.16
2019-03-12T00:17:34.373Z,312.41
2019-03-12T00:18:34.377Z,312.69
2019-03-12T00:19:34.388Z,312.20
2019-03-12T00:20:34.354Z,312.35
2019-03-12T00:21:34.333Z,311.91
2019-03-12T00:22:34.314Z,312.20
2019-03-12T00:23:34.314Z,311.82
2019-03-12T00:24:34.329Z,312.30
2019-03-12T00:25:34.302Z,312.23
2019-03-12T00:26:34.292Z,312.12
2019-03-12T00:27:34.270Z,312.26
2019-03-12T00:28:34.260Z,312.16
2019-03-12T00:29:34.230Z,312.39
2019-03-12T00:30:34.254Z,311.93
2019-03-12T00:31:34.223Z,312.05
2019-03-12T00:32:34.235Z,311.81
2019-03-12T00:33:34.200Z,311.78
2019-03-12T00:34:34.184Z,312.56
2019-03-12T00:35:34.194Z,312.49
2019-03-12T00:36:34.175Z,312.11
2019-03-12T00:37:34.162Z,311.74
2019-03-12T00:38:34.149Z,311.86
2019-03-12T00:39:34.139Z,312.00
2019-03-12T00:40:34.144Z,311.18
2019-03-12T00:41:34.114Z,311.93
2019-03-12T00:42:34.099Z,312.04
2019-03-12T00:43:34.121Z,311.40
2019-03-12T00:44:34.104Z,311.76
2019-03-12T00:45:34.089Z,311.73
2019-03-12T00:46:34.062Z,312.40
2019-03-12T00:47:34.041Z,311.78
2019-03-12T00:48:34.034Z,311.98
2019-03-12T00:49:34.045Z,311.97
2019-03-12T00:50:34.024Z,311.97
2019-03-12T00:51:34.021Z,311.97
2019-03-12T00:52:33.981Z,311.81
2019-03-12T00:53:33.969Z,312.10
2019-03-12T00:54:33.970Z,312.46
2019-03-12T00:55:33.962Z,312.07
2019-03-12T00:56:33.990Z,312.24
2019-03-12T00:57:33.952Z,311.86
2019-03-12T00:58:33.931Z,312.00
2019-03-12T00:59:33.911Z,311.99
2019-03-12T01:00:33.911Z,312.24
2019-03-12T01:01:33.887Z,312.26
2019-03-12T01:02:33.899Z,312.02
2019-03-12T01:03:33.876Z,312.24
2019-03-12T01:04:33.871Z,312.08
2019-03-12T01:05:33.850Z,312.16
2019-03-12T01:06:33.839Z,312.12
2019-03-12T01:07:33.994Z,312.21
2019-03-12T01:08:33.837Z,312.36
2019-03-12T01:09:33.805Z,312.21
2019-03-12T01:10:33.798Z,312.16
2019-03-12T01:11:33.835Z,311.95
2019-03-12T01:12:33.789Z,311.98
2019-03-12T01:13:33.759Z,311.73
2019-03-12T01:14:33.827Z,312.35
2019-03-12T01:15:33.740Z,311.84
2019-03-12T01:16:33.742Z,311.72
2019-03-12T01:17:33.818Z,311.77
2019-03-12T01:18:33.715Z,312.27
2019-03-12T01:19:33.694Z,311.71
2019-03-12T01:20:33.689Z,312.13
2019-03-12T01:21:33.678Z,312.31
2019-03-12T01:22:33.698Z,312.20
2019-03-12T01:23:33.673Z,311.80
2019-03-12T01:24:33.649Z,313.19
2019-03-12T01:25:33.631Z,311.92
2019-03-12T01:26:33.609Z,311.96
2019-03-12T01:27:33.618Z,311.83
2019-03-12T01:28:33.626Z,313.01
2019-03-12T01:29:33.591Z,312.60
2019-03-12T01:30:33.581Z,311.95
2019-03-12T01:31:33.570Z,311.83
2019-03-12T01:32:33.549Z,311.92
2019-03-12T01:33:33.557Z,311.80
2019-03-12T01:34:33.528Z,311.98
2019-03-12T01:35:33.530Z,311.89
2019-03-12T01:36:33.539Z,312.18
2019-03-12T01:37:33.512Z,312.48
2019-03-12T01:38:33.520Z,311.97
2019-03-12T01:39:33.494Z,312.28
2019-03-12T01:40:33.476Z,312.38
2019-03-12T01:41:33.480Z,311.59
2019-03-12T01:42:33.454Z,311.76
2019-03-12T01:43:33.453Z,311.56
2019-03-12T01:44:33.424Z,311.90
2019-03-12T01:45:33.411Z,311.71
2019-03-12T01:46:33.398Z,311.95
2019-03-12T01:47:33.406Z,311.95
2019-03-12T01:48:33.408Z,311.76
2019-03-12T01:49:33.422Z,311.67
2019-03-12T01:50:33.365Z,312.12
2019-03-12T01:51:33.346Z,312.11
2019-03-12T01:52:33.338Z,311.54
2019-03-12T01:53:33.441Z,311.62
2019-03-12T01:54:33.324Z,311.84
2019-03-12T01:55:33.329Z,311.89
2019-03-12T01:56:33.297Z,311.99
2019-03-12T01:57:33.281Z,311.60
2019-03-12T01:58:33.262Z,311.72
2019-03-12T01:59:33.287Z,312.03
2019-03-12T02:00:33.273Z,311.58
2019-03-12T02:01:33.238Z,312.17
2019-03-12T02:02:33.236Z,311.77
2019-03-12T02:03:33.215Z,311.96
2019-03-12T02:04:33.215Z,311.90
2019-03-12T02:05:33.209Z,312.09
2019-03-12T02:06:33.198Z,311.99
2019-03-12T02:07:33.176Z,312.19
2019-03-12T02:08:33.168Z,311.81
2019-03-12T02:09:33.152Z,311.44
2019-03-12T02:10:33.174Z,311.67
2019-03-12T02:11:33.132Z,312.00
2019-03-12T02:12:33.914Z,311.31
2019-03-12T02:13:33.116Z,311.50
2019-03-12T02:14:33.106Z,311.42
2019-03-12T02:15:33.112Z,311.69
2019-03-12T02:16:34.940Z,311.75
2019-03-12T02:17:33.067Z,311.06
2019-03-12T02:18:33.075Z,311.86
2019-03-12T02:19:33.048Z,312.14
2019-03-12T02:20:33.063Z,312.18
2019-03-12T02:21:33.058Z,311.85
2019-03-12T02:22:33.030Z,311.93
2019-03-12T02:23:33.008Z,311.90
2019-03-12T02:24:33.003Z,311.89
2019-03-12T02:25:33.022Z,311.67
2019-03-12T02:26:32.990Z,311.48
2019-03-12T02:27:32.965Z,311.77
2019-03-12T02:28:32.963Z,311.88
2019-03-12T02:29:32.940Z,311.47
2019-03-12T02:30:32.957Z,311.92
2019-03-12T02:31:32.923Z,311.79
2019-03-12T02:32:32.925Z,311.96
2019-03-12T02:33:32.907Z,311.71
2019-03-12T02:34:32.909Z,311.55
2019-03-12T02:35:32.888Z,312.37
2019-03-12T02:36:32.918Z,312.84
2019-03-12T02:37:32.945Z,312.23
2019-03-12T02:38:32.834Z,312.00
2019-03-12T02:39:32.848Z,311.71
2019-03-12T02:40:32.826Z,311.76
2019-03-12T02:41:32.829Z,312.09
2019-03-12T02:42:32.795Z,312.35
2019-03-12T02:43:32.794Z,311.71
2019-03-12T02:44:32.782Z,311.55
2019-03-12T02:45:32.771Z,311.90
2019-03-12T02:46:32.799Z,312.24
2019-03-12T02:47:32.756Z,312.16
2019-03-12T02:48:32.728Z,311.82
2019-03-12T02:49:32.736Z,312.21
2019-03-12T02:50:32.734Z,312.04
2019-03-12T02:51:32.718Z,312.22
2019-03-12T02:52:32.691Z,312.00
2019-03-12T02:53:32.704Z,311.79
2019-03-12T02:54:32.672Z,312.15
2019-03-12T02:55:32.679Z,311.46
2019-03-12T02:56:32.653Z,311.54
2019-03-12T02:57:32.651Z,312.04
2019-03-12T02:58:32.653Z,312.25
2019-03-12T02:59:32.610Z,311.86
2019-03-12T03:00:32.602Z,311.97
2019-03-12T03:01:32.602Z,312.07
2019-03-12T03:02:32.575Z,312.16
2019-03-12T03:03:32.569Z,311.90
2019-03-12T03:04:32.569Z,311.74
2019-03-12T03:05:32.592Z,311.39
2019-03-12T03:06:32.575Z,311.54
2019-03-12T03:07:32.525Z,311.73
2019-03-12T03:08:32.523Z,311.79
2019-03-12T03:09:32.565Z,311.82
2019-03-12T03:10:32.494Z,311.56
2019-03-12T03:11:32.490Z,311.52
2019-03-12T03:12:32.470Z,312.23
2019-03-12T03:13:32.452Z,312.20
2019-03-12T03:14:32.469Z,311.54
2019-03-12T03:15:32.446Z,312.09
2019-03-12T03:16:32.443Z,311.95
2019-03-12T03:17:32.421Z,311.95
2019-03-12T03:18:32.420Z,311.51
2019-03-12T03:19:32.385Z,311.83
2019-03-12T03:20:32.404Z,312.35
2019-03-12T03:21:32.373Z,311.94
2019-03-12T03:22:32.354Z,311.69
2019-03-12T03:23:32.352Z,311.75
2019-03-12T03:24:32.351Z,312.20
2019-03-12T03:25:32.370Z,312.18
2019-03-12T03:26:32.333Z,311.55
2019-03-12T03:27:32.314Z,312.45
2019-03-12T03:28:32.284Z,312.69
2019-03-12T03:29:32.290Z,312.27
2019-03-12T03:30:32.292Z,312.60
2019-03-12T03:31:32.273Z,312.71
2019-03-12T03:32:32.241Z,312.19
2019-03-12T03:33:32.256Z,312.35
2019-03-12T03:34:32.227Z,311.95
2019-03-12T03:35:32.225Z,312.31
2019-03-12T03:36:32.254Z,311.77
2019-03-12T03:37:32.209Z,311.88
2019-03-12T03:38:32.193Z,311.92
2019-03-12T03:39:32.176Z,312.00
2019-03-12T03:40:32.154Z,311.95
2019-03-12T03:41:34.794Z,312.06
2019-03-12T03:42:32.161Z,312.35
2019-03-12T03:43:32.140Z,312.34
2019-03-12T03:44:32.121Z,312.04
2019-03-12T03:45:32.107Z,311.70
2019-03-12T03:46:32.093Z,311.36
2019-03-12T03:47:32.208Z,311.68
2019-03-12T03:48:32.086Z,311.71
2019-03-12T03:49:32.082Z,311.77
2019-03-12T03:50:32.062Z,311.95
2019-03-12T03:51:32.029Z,311.78
2019-03-12T03:52:32.041Z,311.84
2019-03-12T03:53:32.014Z,311.74
2019-03-12T03:54:32.018Z,312.41
2019-03-12T03:55:32.013Z,312.15
2019-03-12T03:56:32.041Z,312.39
2019-03-12T03:57:32.014Z,312.75
2019-03-12T03:58:31.973Z,313.33
2019-03-12T03:59:31.951Z,312.71
2019-03-12T04:00:31.938Z,312.52
2019-03-12T04:01:31.940Z,312.36
2019-03-12T04:02:31.933Z,312.14
2019-03-12T04:03:31.985Z,311.89
2019-03-12T04:04:31.900Z,312.04
2019-03-12T04:05:31.891Z,312.07
2019-03-12T04:06:34.071Z,312.43
2019-03-12T04:07:31.901Z,312.18
2019-03-12T04:08:31.876Z,311.78
2019-03-12T04:09:31.858Z,311.71
2019-03-12T04:10:31.845Z,312.23
2019-03-12T04:11:31.828Z,312.00
2019-03-12T04:12:31.829Z,312.14
2019-03-12T04:13:31.827Z,312.21
2019-03-12T04:14:31.796Z,312.20
2019-03-12T04:15:31.809Z,312.13
2019-03-12T04:16:31.795Z,312.58
2019-03-12T04:17:31.771Z,312.81
2019-03-12T04:18:31.769Z,312.90
2019-03-12T04:19:31.748Z,313.14
2019-03-12T04:20:31.739Z,313.27
2019-03-12T04:21:31.714Z,312.86
2019-03-12T04:22:31.749Z,312.92
2019-03-12T04:23:31.691Z,313.04
2019-03-12T04:24:31.700Z,313.62
2019-03-12T04:25:31.676Z,313.10
2019-03-12T04:26:31.653Z,313.12
2019-03-12T04:27:31.707Z,313.16
2019-03-12T04:28:31.639Z,312.53
2019-03-12T04:29:31.631Z,311.83
2019-03-12T04:30:31.623Z,311.79
2019-03-12T04:31:31.615Z,312.10
2019-03-12T04:32:31.621Z,311.73
2019-03-12T04:33:31.646Z,312.10
2019-03-12T04:34:31.570Z,312.07
2019-03-12T04:35:31.564Z,312.13
2019-03-12T04:36:31.550Z,312.01
2019-03-12T04:37:31.550Z,312.56
2019-03-12T04:38:31.522Z,312.39
2019-03-12T04:39:31.541Z,312.16
2019-03-12T04:40:31.510Z,312.16
2019-03-12T04:41:31.509Z,312.63
2019-03-12T04:42:31.487Z,313.72
2019-03-12T04:43:31.465Z,313.80
2019-03-12T04:44:31.484Z,313.80
2019-03-12T04:45:31.463Z,313.28
2019-03-12T04:46:31.437Z,313.17
2019-03-12T04:47:31.440Z,313.47
2019-03-12T04:48:31.426Z,314.92
2019-03-12T04:49:31.427Z,316.08
2019-03-12T04:50:31.400Z,317.79
2019-03-12T04:51:31.382Z,315.72
2019-03-12T04:52:31.380Z,314.47
2019-03-12T04:53:31.364Z,313.97
2019-03-12T04:54:31.363Z,313.63
2019-03-12T04:55:31.368Z,313.82
2019-03-12T04:56:31.332Z,312.78
2019-03-12T04:57:31.316Z,313.15
2019-03-12T04:58:31.315Z,312.35
2019-03-12T04:59:31.304Z,312.65
2019-03-12T05:00:31.294Z,312.94
2019-03-12T05:01:31.296Z,313.30
2019-03-12T05:02:31.270Z,313.90
2019-03-12T05:03:31.239Z,313.19
2019-03-12T05:04:31.241Z,313.65
2019-03-12T05:05:31.261Z,314.48
2019-03-12T05:06:31.238Z,315.16
2019-03-12T05:07:31.206Z,314.67
2019-03-12T05:08:31.198Z,314.10
2019-03-12T05:09:31.188Z,313.84
2019-03-12T05:10:31.194Z,316.07
2019-03-12T05:11:31.176Z,314.62
2019-03-12T05:12:31.166Z,312.77
2019-03-12T05:13:31.175Z,312.80
2019-03-12T05:14:31.149Z,312.55
2019-03-12T05:15:31.123Z,312.96
2019-03-12T05:16:31.135Z,313.19
2019-03-12T05:17:31.097Z,314.22
2019-03-12T05:18:31.077Z,314.19
2019-03-12T05:19:31.083Z,314.62
2019-03-12T05:20:31.068Z,313.65
2019-03-12T05:21:31.057Z,313.29
2019-03-12T05:22:31.060Z,313.01
2019-03-12T05:23:31.044Z,313.99
2019-03-12T05:24:31.031Z,315.10
2019-03-12T05:25:31.020Z,314.64
2019-03-12T05:26:31.013Z,313.61
2019-03-12T05:27:31.029Z,312.58
2019-03-12T05:28:30.978Z,314.64
2019-03-12T05:29:30.982Z,314.59
2019-03-12T05:30:30.948Z,313.93
2019-03-12T05:31:30.958Z,313.30
2019-03-12T05:32:30.939Z,312.57
2019-03-12T05:33:30.946Z,315.30
2019-03-12T05:34:30.924Z,316.69
2019-03-12T05:35:30.921Z,315.14
2019-03-12T05:36:30.899Z,314.13
2019-03-12T05:37:30.897Z,314.69
2019-03-12T05:38:30.903Z,315.00
2019-03-12T05:39:30.881Z,314.15
2019-03-12T05:40:30.850Z,313.70
2019-03-12T05:41:30.829Z,314.23
2019-03-12T05:42:30.827Z,315.20
2019-03-12T05:43:30.841Z,314.92
2019-03-12T05:44:30.813Z,315.38
2019-03-12T05:45:30.818Z,315.43
2019-03-12T05:46:30.793Z,314.57
2019-03-12T05:47:30.763Z,314.80
2019-03-12T05:48:30.802Z,314.26
2019-03-12T05:49:30.773Z,314.29
2019-03-12T05:50:30.751Z,315.03
2019-03-12T05:51:30.730Z,315.40
2019-03-12T05:52:30.734Z,315.49
2019-03-12T05:53:30.701Z,315.51
2019-03-12T05:54:30.712Z,315.14
2019-03-12T05:55:30.717Z,314.39
2019-03-12T05:56:30.692Z,314.58
2019-03-12T05:57:30.664Z,314.62
2019-03-12T05:58:30.658Z,314.68
2019-03-12T05:59:30.641Z,314.44
2019-03-12T06:00:30.645Z,314.64
2019-03-12T06:01:30.618Z,314.29
2019-03-12T06:02:30.624Z,314.69
2019-03-12T06:03:30.601Z,315.41
2019-03-12T06:04:30.577Z,315.23
2019-03-12T06:05:30.694Z,314.68
2019-03-12T06:06:30.575Z,315.02
2019-03-12T06:07:30.561Z,315.18
2019-03-12T06:08:30.557Z,314.74
2019-03-12T06:09:30.739Z,314.99
2019-03-12T06:10:30.512Z,315.35
2019-03-12T06:11:30.557Z,314.41
2019-03-12T06:12:30.503Z,315.71
2019-03-12T06:13:30.495Z,314.27
2019-03-12T06:14:30.493Z,314.22
2019-03-12T06:15:30.466Z,314.50
2019-03-12T06:16:30.473Z,313.33
2019-03-12T06:17:30.437Z,313.28
2019-03-12T06:18:30.427Z,314.16
2019-03-12T06:19:30.436Z,314.19
2019-03-12T06:20:30.417Z,315.85
2019-03-12T06:21:30.423Z,317.27
2019-03-12T06:22:30.389Z,316.81
2019-03-12T06:23:30.367Z,316.08
2019-03-12T06:24:30.359Z,315.50
2019-03-12T06:25:30.374Z,315.66
2019-03-12T06:26:30.381Z,315.03
2019-03-12T06:27:30.349Z,314.36
2019-03-12T06:28:31.314Z,314.88
2019-03-12T06:29:30.325Z,316.04
2019-03-12T06:30:30.293Z,315.88
2019-03-12T06:31:30.314Z,314.78
2019-03-12T06:32:30.285Z,314.43
2019-03-12T06:33:30.283Z,315.68
2019-03-12T06:34:30.262Z,315.75
2019-03-12T06:35:30.260Z,317.01
2019-03-12T06:36:30.258Z,317.04
2019-03-12T06:37:30.241Z,319.24
2019-03-12T06:38:30.244Z,319.43
2019-03-12T06:39:30.219Z,317.33
2019-03-12T06:40:30.197Z,315.60
2019-03-12T06:41:30.954Z,315.35
2019-03-12T06:42:30.204Z,315.00
2019-03-12T06:43:30.186Z,316.30
2019-03-12T06:44:30.162Z,315.70
2019-03-12T06:45:30.136Z,317.29
2019-03-12T06:46:30.133Z,317.15
2019-03-12T06:47:30.136Z,316.64
2019-03-12T06:48:30.113Z,317.67
2019-03-12T06:49:30.098Z,316.37
2019-03-12T06:50:30.090Z,315.60
2019-03-12T06:51:30.066Z,316.28
2019-03-12T06:52:30.070Z,315.41
2019-03-12T06:53:30.087Z,315.92
2019-03-12T06:54:30.039Z,316.26
2019-03-12T06:55:30.024Z,317.38
2019-03-12T06:56:30.015Z,318.08
2019-03-12T06:57:30.040Z,317.75
2019-03-12T06:58:30.015Z,316.80
2019-03-12T06:59:30.012Z,316.41
2019-03-12T07:00:29.993Z,316.49
2019-03-12T07:01:29.965Z,316.12
2019-03-12T07:02:29.957Z,315.93
2019-03-12T07:03:29.946Z,315.46
2019-03-12T07:04:29.951Z,315.52
2019-03-12T07:05:29.927Z,315.14
2019-03-12T07:06:29.931Z,316.42
2019-03-12T07:07:29.895Z,316.36
2019-03-12T07:08:29.907Z,316.30
2019-03-12T07:09:29.929Z,320.18
2019-03-12T07:10:29.880Z,315.97
2019-03-12T07:11:29.860Z,314.90
2019-03-12T07:12:29.845Z,313.77
2019-03-12T07:13:29.874Z,314.57
2019-03-12T07:14:29.815Z,314.91
2019-03-12T07:15:29.855Z,314.90
2019-03-12T07:16:29.806Z,315.24
2019-03-12T07:17:29.790Z,314.88
2019-03-12T07:18:29.785Z,314.43
2019-03-12T07:19:29.764Z,315.88
2019-03-12T07:20:29.753Z,314.70
2019-03-12T07:21:29.854Z,315.63
2019-03-12T07:22:29.725Z,316.15
2019-03-12T07:23:29.745Z,316.21
2019-03-12T07:24:29.723Z,317.20
2019-03-12T07:25:29.720Z,317.28
2019-03-12T07:26:29.723Z,316.30
2019-03-12T07:27:29.693Z,316.60
2019-03-12T07:28:29.663Z,316.67
2019-03-12T07:29:29.671Z,315.81
2019-03-12T07:30:29.652Z,315.22
2019-03-12T07:31:29.771Z,315.28
2019-03-12T07:32:29.659Z,315.09
2019-03-12T07:33:29.610Z,314.56
2019-03-12T07:34:36.620Z,316.26
2019-03-12T07:35:30.620Z,315.42
2019-03-12T07:36:29.589Z,314.85
2019-03-12T07:37:29.596Z,314.29
2019-03-12T07:38:29.566Z,314.80
2019-03-12T07:39:29.539Z,314.45
2019-03-12T07:40:29.543Z,314.99
2019-03-12T07:41:32.316Z,314.35
2019-03-12T07:42:29.543Z,314.50
2019-03-12T07:43:29.551Z,315.48
2019-03-12T07:44:29.491Z,315.30
2019-03-12T07:45:29.473Z,315.64
2019-03-12T07:46:29.465Z,315.60
2019-03-12T07:47:35.764Z,315.17
2019-03-12T07:48:30.450Z,315.10
2019-03-12T07:49:29.441Z,314.98
2019-03-12T07:50:29.438Z,316.84
2019-03-12T07:51:29.412Z,317.68
2019-03-12T07:52:29.440Z,316.36
2019-03-12T07:53:29.389Z,316.35
2019-03-12T07:54:29.386Z,315.58
2019-03-12T07:55:30.002Z,315.07
2019-03-12T07:56:29.377Z,316.05
2019-03-12T07:57:29.355Z,316.71
2019-03-12T07:58:35.539Z,317.94
2019-03-12T07:59:30.318Z,316.79
2019-03-12T08:00:29.314Z,317.65
2019-03-12T08:01:29.306Z,315.95
2019-03-12T08:02:29.296Z,315.19
2019-03-12T08:03:29.336Z,314.57
2019-03-12T08:04:29.296Z,314.98
2019-03-12T08:05:29.268Z,315.43
2019-03-12T08:06:29.247Z,315.48
2019-03-12T08:07:29.243Z,316.33
2019-03-12T08:08:29.242Z,314.91
2019-03-12T08:09:29.262Z,314.18
2019-03-12T08:10:29.211Z,313.40
2019-03-12T08:11:29.197Z,313.78
2019-03-12T08:12:29.181Z,313.71
2019-03-12T08:13:29.170Z,313.83
2019-03-12T08:14:29.171Z,313.48
2019-03-12T08:15:29.265Z,313.68
2019-03-12T08:16:29.152Z,313.78
2019-03-12T08:17:29.133Z,313.62
2019-03-12T08:18:29.111Z,314.01
2019-03-12T08:19:29.139Z,314.02
2019-03-12T08:20:29.108Z,314.48
2019-03-12T08:21:29.131Z,313.73
2019-03-12T08:22:29.082Z,313.50
2019-03-12T08:23:29.079Z,314.49
2019-03-12T08:24:29.068Z,315.26
2019-03-12T08:25:29.046Z,314.28
2019-03-12T08:26:29.052Z,315.52
2019-03-12T08:27:29.037Z,315.98
2019-03-12T08:28:29.021Z,315.37
2019-03-12T08:29:29.011Z,315.91
2019-03-12T08:30:28.995Z,314.74
2019-03-12T08:31:29.000Z,315.31
2019-03-12T08:32:28.962Z,316.36
2019-03-12T08:33:28.969Z,316.29
2019-03-12T08:34:28.956Z,315.43
2019-03-12T08:35:28.943Z,314.48
2019-03-12T08:36:28.938Z,315.25
2019-03-12T08:37:28.899Z,314.97
2019-03-12T08:38:28.898Z,315.41
2019-03-12T08:39:28.886Z,316.56
2019-03-12T08:40:28.901Z,321.34
2019-03-12T08:41:28.893Z,317.09
2019-03-12T08:42:28.861Z,316.36
2019-03-12T08:43:28.843Z,315.92
2019-03-12T08:44:28.853Z,315.49
2019-03-12T08:45:28.822Z,316.67
2019-03-12T08:46:28.831Z,314.92
2019-03-12T08:47:28.813Z,315.71
2019-03-12T08:48:28.816Z,315.97
2019-03-12T08:49:28.800Z,315.97
2019-03-12T08:50:28.781Z,314.84
2019-03-12T08:51:28.804Z,315.66
2019-03-12T08:52:28.756Z,315.27
2019-03-12T08:53:28.738Z,315.21
2019-03-12T08:54:28.724Z,316.64
2019-03-12T08:55:28.709Z,314.27
2019-03-12T08:56:28.716Z,315.65
2019-03-12T08:57:28.699Z,314.85
2019-03-12T08:58:28.701Z,315.01
2019-03-12T08:59:28.681Z,314.57
2019-03-12T09:00:28.724Z,314.60
2019-03-12T09:01:28.680Z,315.26
2019-03-12T09:02:28.651Z,315.58
2019-03-12T09:03:28.627Z,316.56
2019-03-12T09:04:28.635Z,316.03
2019-03-12T09:05:28.608Z,315.82
2019-03-12T09:06:28.613Z,314.83
2019-03-12T09:07:28.577Z,315.59
2019-03-12T09:08:28.569Z,313.80
2019-03-12T09:09:28.573Z,313.62
2019-03-12T09:10:28.547Z,315.13
2019-03-12T09:11:28.564Z,315.10
2019-03-12T09:12:28.528Z,314.59
2019-03-12T09:13:28.547Z,313.92
2019-03-12T09:14:28.511Z,313.84
2019-03-12T09:15:28.505Z,315.16
2019-03-12T09:16:28.497Z,315.35
2019-03-12T09:17:28.481Z,314.93
2019-03-12T09:18:28.478Z,314.63
2019-03-12T09:19:28.453Z,313.35
2019-03-12T09:20:28.450Z,312.39
2019-03-12T09:21:28.432Z,313.46
2019-03-12T09:22:28.449Z,313.08
2019-03-12T09:23:28.406Z,311.99
2019-03-12T09:24:28.401Z,312.54
2019-03-12T09:25:28.388Z,313.53
2019-03-12T09:26:28.386Z,313.56
2019-03-12T09:27:28.358Z,314.00
2019-03-12T09:28:28.380Z,315.69
2019-03-12T09:29:28.339Z,314.94
2019-03-12T09:30:28.326Z,314.44
2019-03-12T09:31:28.324Z,314.88
2019-03-12T09:32:28.316Z,314.62
2019-03-12T09:33:28.308Z,318.97
2019-03-12T09:34:28.329Z,315.65
2019-03-12T09:35:28.336Z,317.16
2019-03-12T09:36:28.248Z,314.11
2019-03-12T09:37:28.256Z,321.21
2019-03-12T09:38:28.239Z,316.08
2019-03-12T09:39:28.261Z,319.08
2019-03-12T09:40:28.209Z,314.66
2019-03-12T09:41:28.216Z,318.01
2019-03-12T09:42:28.189Z,313.06
2019-03-12T09:43:28.195Z,318.24
2019-03-12T09:44:28.186Z,316.60
2019-03-12T09:45:28.196Z,314.98
2019-03-12T09:46:28.160Z,317.13
2019-03-12T09:47:28.150Z,315.41
2019-03-12T09:48:28.140Z,314.42
2019-03-12T09:49:28.130Z,314.95
2019-03-12T09:50:28.138Z,306.40
2019-03-12T09:51:28.099Z,307.82
2019-03-12T09:52:28.094Z,316.56
2019-03-12T09:53:28.081Z,306.59
2019-03-12T09:54:28.068Z,317.15
2019-03-12T09:55:28.094Z,310.82
2019-03-12T09:56:28.096Z,312.61
2019-03-12T09:57:28.044Z,313.89
2019-03-12T09:58:28.020Z,312.72
2019-03-12T09:59:27.998Z,314.33
2019-03-12T10:00:28.027Z,308.98
2019-03-12T10:01:27.985Z,305.79
2019-03-12T10:02:27.979Z,309.87
2019-03-12T10:03:27.995Z,311.83
2019-03-12T10:04:27.995Z,303.72
2019-03-12T10:05:27.961Z,308.13
2019-03-12T10:06:27.974Z,308.59
2019-03-12T10:07:27.921Z,307.63
2019-03-12T10:08:27.920Z,312.91
2019-03-12T10:09:27.918Z,303.71
2019-03-12T10:10:27.919Z,307.00
2019-03-12T10:11:27.963Z,309.86
2019-03-12T10:12:27.904Z,313.91
2019-03-12T10:13:27.924Z,312.50
2019-03-12T10:14:27.878Z,307.19
2019-03-12T10:15:27.918Z,303.69
2019-03-12T10:16:27.872Z,310.97
2019-03-12T10:17:27.872Z,306.46
2019-03-12T10:18:27.854Z,304.33
2019-03-12T10:19:27.798Z,306.52
2019-03-12T10:20:27.773Z,304.62
2019-03-12T10:21:27.781Z,306.80
2019-03-12T10:22:27.761Z,309.95
2019-03-12T10:23:27.770Z,307.81
2019-03-12T10:24:28.890Z,307.56
2019-03-12T10:25:27.720Z,303.75
2019-03-12T10:26:27.716Z,306.18
2019-03-12T10:27:27.723Z,308.59
2019-03-12T10:28:27.768Z,306.97
2019-03-12T10:29:27.685Z,308.56
2019-03-12T10:30:27.680Z,306.14
2019-03-12T10:31:27.649Z,305.13
2019-03-12T10:32:27.637Z,307.90
2019-03-12T10:33:27.644Z,308.88
2019-03-12T10:34:29.930Z,307.03
2019-03-12T10:35:27.624Z,306.17
2019-03-12T10:36:30.788Z,308.73
2019-03-12T10:37:27.597Z,308.00
2019-03-12T10:38:27.615Z,307.49
2019-03-12T10:39:27.572Z,304.34
2019-03-12T10:40:27.549Z,308.60
2019-03-12T10:41:27.551Z,311.09
2019-03-12T10:42:27.550Z,307.85
2019-03-12T10:43:27.523Z,310.27
2019-03-12T10:44:27.536Z,303.71
2019-03-12T10:45:27.497Z,310.17
2019-03-12T10:46:27.490Z,309.37
2019-03-12T10:47:27.499Z,306.66
2019-03-12T10:48:27.521Z,304.42
2019-03-12T10:49:36.976Z,311.42
2019-03-12T10:50:28.464Z,310.68
2019-03-12T10:51:27.436Z,305.89
2019-03-12T10:52:27.423Z,309.31
2019-03-12T10:53:27.412Z,310.10
2019-03-12T10:54:27.397Z,311.28
2019-03-12T10:55:27.422Z,306.70
2019-03-12T10:56:27.383Z,310.58
2019-03-12T10:57:27.377Z,309.22
2019-03-12T10:58:27.357Z,313.71
2019-03-12T10:59:27.351Z,312.76
2019-03-12T11:00:27.357Z,314.12
2019-03-12T11:01:27.336Z,310.96
2019-03-12T11:02:27.318Z,309.06
2019-03-12T11:03:27.295Z,306.76
2019-03-12T11:04:27.297Z,307.90
2019-03-12T11:05:27.297Z,307.75
2019-03-12T11:06:27.268Z,311.43
2019-03-12T11:07:27.262Z,306.99
2019-03-12T11:08:27.269Z,308.47
2019-03-12T11:09:27.248Z,311.50
2019-03-12T11:10:27.243Z,310.74
2019-03-12T11:11:27.208Z,306.50
2019-03-12T11:12:27.212Z,305.45
2019-03-12T11:13:27.196Z,306.36
2019-03-12T11:14:27.187Z,308.23
2019-03-12T11:15:27.176Z,309.92
2019-03-12T11:16:27.155Z,307.70
2019-03-12T11:17:27.144Z,310.43
2019-03-12T11:18:27.143Z,311.83
2019-03-12T11:19:27.153Z,313.42
2019-03-12T11:20:27.185Z,312.10
2019-03-12T11:21:27.108Z,312.72
2019-03-12T11:22:27.094Z,306.48
2019-03-12T11:23:27.075Z,303.10
2019-03-12T11:24:27.057Z,302.38
2019-03-12T11:25:28.271Z,306.90
2019-03-12T11:26:27.042Z,309.08
2019-03-12T11:27:27.037Z,309.38
2019-03-12T11:28:27.036Z,308.46
2019-03-12T11:29:27.016Z,303.35
2019-03-12T11:30:27.036Z,303.95
2019-03-12T11:31:27.008Z,308.76
2019-03-12T11:32:26.979Z,306.79
2019-03-12T11:33:26.982Z,310.53
2019-03-12T11:34:26.970Z,310.35
2019-03-12T11:35:26.972Z,309.18
2019-03-12T11:36:26.945Z,307.27
2019-03-12T11:37:26.916Z,316.27
2019-03-12T11:38:26.910Z,302.32
2019-03-12T11:39:26.931Z,306.45
2019-03-12T11:40:31.957Z,303.93
2019-03-12T11:41:27.926Z,307.46
2019-03-12T11:42:27.186Z,308.76
2019-03-12T11:43:26.857Z,309.89
2019-03-12T11:44:26.842Z,312.50
2019-03-12T11:45:36.161Z,309.97
2019-03-12T11:46:27.863Z,305.05
2019-03-12T11:47:26.851Z,307.62
2019-03-12T11:48:26.801Z,307.51
2019-03-12T11:49:26.825Z,308.66
2019-03-12T11:50:26.786Z,304.30
2019-03-12T11:51:26.838Z,303.97
2019-03-12T11:52:26.789Z,307.07
2019-03-12T11:53:26.863Z,305.54
2019-03-12T11:54:26.802Z,304.54
2019-03-12T11:55:26.753Z,306.96
2019-03-12T11:56:26.740Z,306.43
2019-03-12T11:57:26.745Z,306.06
2019-03-12T11:58:26.701Z,303.74
2019-03-12T11:59:26.684Z,307.04
2019-03-12T12:00:27.985Z,307.22
2019-03-12T12:01:26.672Z,306.74
2019-03-12T12:02:26.700Z,307.07
2019-03-12T12:03:26.639Z,304.02
2019-03-12T12:04:26.628Z,310.02
2019-03-12T12:05:26.638Z,306.28
2019-03-12T12:06:26.632Z,310.06
2019-03-12T12:07:26.845Z,307.44
2019-03-12T12:08:26.613Z,311.46
2019-03-12T12:09:26.570Z,308.66
2019-03-12T12:10:26.624Z,304.47
2019-03-12T12:11:26.563Z,302.70
2019-03-12T12:12:26.536Z,304.43
2019-03-12T12:13:26.547Z,306.86
2019-03-12T12:14:26.669Z,306.82
2019-03-12T12:15:26.514Z,308.17
2019-03-12T12:16:26.488Z,306.65
2019-03-12T12:17:26.491Z,306.58
2019-03-12T12:18:26.503Z,305.94
2019-03-12T12:19:26.450Z,307.93
2019-03-12T12:20:30.178Z,306.06
2019-03-12T12:21:26.436Z,305.67
2019-03-12T12:22:26.421Z,308.62
2019-03-12T12:23:26.435Z,307.03
2019-03-12T12:24:26.892Z,306.47
2019-03-12T12:25:26.404Z,310.37
2019-03-12T12:26:26.387Z,307.48
2019-03-12T12:27:26.366Z,309.83
2019-03-12T12:28:26.370Z,307.54